メインページ
METAR-TAF:

METAR-TAF

空港 :

バーリントン/ マウントバーノン, ワシントン, アメリカ合衆国

緯度: 48-28-15N, 経度: 122-25-15W, 海抜: 44m

現時点の気象観測

当レポートは23分前の17:55(UTC)に作成
南東の風 10kt
気温 12°C
湿度 94%
気圧 1018 hPa
視程: 8.0km
高度1500ftの曇り

METAR: KBVS 171755Z AUTO 14010KT 5SM BR OVC015 12/11 A3006 RMK A01 P0009

時間: 10:18 (18:18 UTC)


TAF: 見つかりません

4,000以上の空港の気象観測と天気予報(METAR報とTAF報)

利用可能な観測所は地図上に黄色い丸と赤い丸で示す。

丸の上にカーソルを重ねると観測所名を参照できる。

次にクリックすると気象観測と天気予報を参照できる。

マップの切り替え:黒色「×」印の緑ボタンをクリックして拡大、「-」印の緑ボタンをクリックして縮小、緑色の三角印をクリックして隣りの地図に切り替え


METAR-TAF: